Time;durP1;ratioP1;P1;durP2;ratioP2;P2;SDS_P1;SDS_P2;PMS_P1;PMS_P2;Temp;Humidity;BMP_temperature;BMP_pressure;BME280_temperature;BME280_humidity;BME280_pressure;Samples;Min_cycle;Max_cycle;Signal;HPM_P1;HPM_P2
2022/11/30 00:01:16;;;;;;;64.20;27.00;;;;;;;-1.06;96.84;99283.80;103141;1313;23900;-74
2022/11/30 00:03:43;;;;;;;65.50;26.90;;;;;;;-1.08;96.76;99286.63;102983;1311;138726;-74
2022/11/30 00:06:13;;;;;;;62.90;27.80;;;;;;;-1.09;96.85;99287.25;103069;1300;22957;-74
2022/11/30 00:08:40;;;;;;;61.20;28.70;;;;;;;-1.10;97.11;99284.83;103162;1286;138411;-74
2022/11/30 00:11:12;;;;;;;73.90;30.10;;;;;;;-1.11;96.54;99283.56;103182;1300;24489;-74
2022/11/30 00:13:39;;;;;;;61.40;27.90;;;;;;;-1.12;96.63;99285.94;102968;1304;138999;-74
2022/11/30 00:16:07;;;;;;;69.80;29.80;;;;;;;-1.13;96.80;99293.92;103324;1311;22487;-74
2022/11/30 00:18:34;;;;;;;68.90;29.30;;;;;;;-1.14;96.94;99296.16;103122;1281;25868;-74
2022/11/30 00:21:07;;;;;;;65.70;29.80;;;;;;;-1.14;97.06;99298.58;102883;1289;138266;-74
2022/11/30 00:23:36;;;;;;;65.20;28.20;;;;;;;-1.12;97.20;99298.83;103216;1304;22473;-74
2022/11/30 00:26:06;;;;;;;66.50;29.40;;;;;;;-1.10;97.17;99300.73;103149;1309;139086;-74
2022/11/30 00:28:34;;;;;;;69.40;28.50;;;;;;;-1.08;97.22;99298.98;103407;1297;25331;-74
2022/11/30 00:31:11;;;;;;;70.90;28.50;;;;;;;-1.07;97.31;99298.61;103340;1287;22625;-74
2022/11/30 00:33:38;;;;;;;62.90;26.70;;;;;;;-1.07;97.06;99305.45;103065;1310;138855;-74
2022/11/30 00:36:15;;;;;;;56.80;27.60;;;;;;;-1.08;96.95;99307.65;102949;1309;24218;-74
2022/11/30 00:38:43;;;;;;;64.70;27.10;;;;;;;-1.10;96.71;99307.66;102641;1313;138384;-74
2022/11/30 00:41:11;;;;;;;62.20;27.30;;;;;;;-1.12;96.68;99304.52;103038;1286;24295;-74
2022/11/30 00:43:38;;;;;;;59.90;28.00;;;;;;;-1.16;96.42;99305.75;102870;1288;138526;-74
2022/11/30 00:46:08;;;;;;;58.00;27.30;;;;;;;-1.19;96.82;99310.65;103033;1295;23499;-75
2022/11/30 00:48:38;;;;;;;61.50;27.80;;;;;;;-1.19;96.78;99307.14;103100;1295;25658;-75
2022/11/30 00:51:07;;;;;;;61.20;28.10;;;;;;;-1.19;97.07;99306.20;103066;1310;139196;-75
2022/11/30 00:53:34;;;;;;;63.60;27.50;;;;;;;-1.19;96.99;99303.88;103088;1285;22725;-75
2022/11/30 00:56:01;;;;;;;71.80;28.20;;;;;;;-1.19;96.98;99298.60;102838;1289;139805;-75
2022/11/30 00:58:28;;;;;;;64.00;29.70;;;;;;;-1.20;96.69;99297.81;103037;1304;22546;-75
2022/11/30 01:00:55;;;;;;;62.90;27.30;;;;;;;-1.21;96.82;99297.64;102935;1313;22480;-75
2022/11/30 01:03:22;;;;;;;67.30;26.60;;;;;;;-1.22;96.73;99300.07;102912;1305;139103;-75
2022/11/30 01:05:49;;;;;;;58.40;25.60;;;;;;;-1.24;96.46;99292.29;102944;1295;25389;-75
2022/11/30 01:08:16;;;;;;;61.90;26.00;;;;;;;-1.26;96.79;99294.97;102950;1310;139064;-75
2022/11/30 01:10:43;;;;;;;63.40;25.70;;;;;;;-1.28;96.69;99292.48;103041;1296;22533;-75
2022/11/30 01:13:11;;;;;;;60.10;25.10;;;;;;;-1.28;96.86;99296.48;103022;1295;27059;-74
2022/11/30 01:15:42;;;;;;;65.30;25.40;;;;;;;-1.29;96.69;99302.08;102908;1288;138251;-75
2022/11/30 01:18:11;;;;;;;56.50;23.70;;;;;;;-1.31;96.97;99302.06;103072;1303;22535;-75
2022/11/30 01:20:41;;;;;;;61.60;26.10;;;;;;;-1.32;96.80;99303.95;102930;1288;138453;-75
2022/11/30 01:23:10;;;;;;;;;;;;;;;-1.33;96.86;99307.45;103066;1298;22455;-75
2022/11/30 01:25:38;;;;;;;61.00;25.60;;;;;;;-1.37;96.68;99309.14;102956;1307;124686;-75
2022/11/30 01:28:05;;;;;;;62.00;27.30;;;;;;;-1.38;96.90;99309.29;102962;1310;22487;-75
2022/11/30 01:30:32;;;;;;;65.70;27.50;;;;;;;-1.39;96.78;99309.95;102949;1310;22882;-75
2022/11/30 01:33:03;;;;;;;58.20;24.80;;;;;;;-1.40;96.96;99308.26;102869;1302;138321;-75
2022/11/30 01:35:30;;;;;;;60.30;23.90;;;;;;;-1.40;97.08;99305.05;103014;1311;24297;-76
2022/11/30 01:37:57;;;;;;;64.50;25.10;;;;;;;-1.40;97.21;99304.00;102795;1313;139821;-76
2022/11/30 01:40:24;;;;;;;59.70;25.50;;;;;;;-1.41;97.37;99306.15;103022;1311;24323;-76
2022/11/30 01:42:51;;;;;;;64.90;26.00;;;;;;;-1.40;97.22;99307.02;103028;1288;22493;-76
2022/11/30 01:45:18;;;;;;;60.40;24.40;;;;;;;-1.41;97.14;99304.11;102905;1295;139231;-76
2022/11/30 01:47:52;;;;;;;61.50;26.70;;;;;;;-1.43;97.03;99305.85;103013;1291;25359;-76
2022/11/30 01:50:34;;;;;;;43.80;18.50;;;;;;;-1.44;97.14;99301.83;103001;1284;138450;-76
2022/11/30 01:53:08;;;;;;;61.90;25.60;;;;;;;-1.47;97.01;99303.90;103033;1281;25354;-76
2022/11/30 01:55:41;;;;;;;64.00;26.00;;;;;;;-1.47;97.28;99307.86;102886;1286;138516;-76
2022/11/30 01:58:15;;;;;;;60.30;25.40;;;;;;;-1.44;97.45;99315.08;103073;1286;25210;-76
2022/11/30 02:00:46;;;;;;;60.60;24.00;;;;;;;-1.44;97.49;99316.06;102973;1290;25507;-76
2022/11/30 02:03:27;;;;;;;55.90;23.90;;;;;;;-1.42;97.28;99321.05;103003;1295;138318;-77
2022/11/30 02:05:54;;;;;;;59.40;24.70;;;;;;;-1.41;97.36;99322.06;103038;1288;23333;-76
2022/11/30 02:08:21;;;;;;;58.20;23.50;;;;;;;-1.40;97.23;99328.05;102916;1310;138438;-76
2022/11/30 02:10:54;;;;;;;58.20;24.50;;;;;;;-1.40;97.06;99329.23;103039;1301;22481;-76
2022/11/30 02:13:27;;;;;;;62.10;25.80;;;;;;;-1.40;97.24;99329.23;102913;1281;138504;-76
2022/11/30 02:16:09;;;;;;;63.00;25.10;;;;;;;-1.38;97.15;99335.96;102978;1281;22486;-76
2022/11/30 02:18:48;;;;;;;64.50;25.00;;;;;;;-1.35;97.38;99336.83;103045;1311;25369;-76
2022/11/30 02:21:26;;;;;;;57.60;25.10;;;;;;;-1.35;97.21;99333.77;102942;1288;138336;-76
2022/11/30 02:24:24;;;;;;;51.20;23.60;;;;;;;-1.36;96.81;99338.52;103304;1295;22488;-76
2022/11/30 02:27:09;;;;;;;55.10;23.70;;;;;;;-1.39;96.90;99335.77;103058;1295;138391;-76
2022/11/30 02:30:02;;;;;;;51.60;22.00;;;;;;;-1.39;97.05;99334.98;103154;1303;24358;-76
2022/11/30 02:32:38;;;;;;;54.80;24.20;;;;;;;-1.41;96.65;99336.08;102884;1285;138755;-76
2022/11/30 02:35:08;;;;;;;54.20;23.70;;;;;;;-1.41;96.89;99334.50;103082;1295;22503;-76
2022/11/30 02:37:37;;;;;;;59.00;25.40;;;;;;;-1.40;96.94;99337.30;102891;1286;138507;-76
2022/11/30 02:40:09;;;;;;;58.30;24.80;;;;;;;-1.40;97.00;99337.83;103051;1311;24334;-76
2022/11/30 02:42:36;;;;;;;55.90;24.60;;;;;;;-1.41;96.83;99333.46;102983;1305;22486;-77
2022/11/30 02:45:06;;;;;;;59.00;24.60;;;;;;;-1.41;97.12;99333.83;102943;1288;138367;-76
2022/11/30 02:47:59;;;;;;;62.40;25.60;;;;;;;-1.40;96.81;99329.65;103165;1306;25351;-76
2022/11/30 02:50:34;;;;;;;56.80;23.40;;;;;;;-1.40;96.83;99331.91;103000;1287;138389;-76
2022/11/30 02:53:02;;;;;;;50.30;22.50;;;;;;;-1.39;96.85;99327.03;103154;1291;25355;-76
2022/11/30 02:55:30;;;;;;;50.50;22.10;;;;;;;-1.41;96.62;99328.11;103128;1305;138487;-76
2022/11/30 02:57:57;;;;;;;54.40;24.40;;;;;;;-1.39;97.03;99327.57;103192;1287;22531;-76
2022/11/30 03:00:24;;;;;;;54.90;22.90;;;;;;;-1.37;96.81;99325.94;102947;1291;25293;-76
2022/11/30 03:02:51;;;;;;;53.40;21.60;;;;;;;-1.36;96.88;99329.05;102916;1305;138578;-76
2022/11/30 03:05:18;;;;;;;53.90;22.40;;;;;;;-1.36;96.68;99329.02;103017;1288;22478;-76
2022/11/30 03:07:48;;;;;;;46.70;22.40;;;;;;;-1.38;96.60;99328.66;102918;1286;138663;-76
2022/11/30 03:10:15;;;;;;;54.50;24.50;;;;;;;-1.39;96.49;99332.22;103044;1279;22581;-76
2022/11/30 03:12:44;;;;;;;54.50;23.30;;;;;;;-1.41;96.44;99334.16;102982;1313;22492;-76
2022/11/30 03:15:11;;;;;;;54.70;24.80;;;;;;;-1.44;96.81;99336.73;102948;1310;138197;-76
2022/11/30 03:17:38;;;;;;;48.70;22.20;;;;;;;-1.44;96.85;99339.46;103012;1291;25306;-76
2022/11/30 03:20:06;;;;;;;49.40;22.40;;;;;;;-1.44;96.99;99343.89;102927;1300;138505;-76
2022/11/30 03:22:33;;;;;;;47.30;21.50;;;;;;;-1.45;96.74;99339.88;103101;1295;22502;-76
2022/11/30 03:25:00;;;;;;;50.60;22.00;;;;;;;-1.44;96.79;99339.40;102933;1301;22487;-76
2022/11/30 03:27:26;;;;;;;51.00;22.20;;;;;;;-1.43;96.90;99341.50;103048;1291;138444;-76
2022/11/30 03:29:53;;;;;;;55.20;22.00;;;;;;;-1.44;96.70;99341.56;103019;1302;22719;-77
2022/11/30 03:32:20;;;;;;;42.90;20.00;;;;;;;-1.47;96.33;99348.11;102970;1304;138401;-76
2022/11/30 03:34:47;;;;;;;51.80;21.70;;;;;;;-1.50;96.42;99346.23;102974;1286;22469;-76
2022/11/30 03:37:14;;;;;;;48.70;21.30;;;;;;;-1.53;96.56;99347.61;103151;1281;24357;-76
2022/11/30 03:39:41;;;;;;;50.50;21.90;;;;;;;-1.55;96.64;99351.66;102869;1297;140488;-76
2022/11/30 03:42:08;;;;;;;51.70;22.00;;;;;;;-1.55;96.45;99351.55;103071;1311;23257;-76
2022/11/30 03:44:37;;;;;;;;;;;;;;;-1.57;96.52;99351.84;103050;1282;138416;-77
2022/11/30 03:47:06;;;;;;;49.00;20.80;;;;;;;-1.60;96.15;99355.73;103149;1287;22482;-76
2022/11/30 03:49:33;;;;;;;47.50;21.40;;;;;;;-1.63;96.53;99358.15;103035;1303;140174;-76
2022/11/30 03:52:00;;;;;;;55.80;21.40;;;;;;;-1.65;96.51;99362.06;103090;1297;22475;-76
2022/11/30 03:54:27;;;;;;;50.30;21.60;;;;;;;-1.67;96.38;99358.21;103027;1289;25434;-76
2022/11/30 03:56:54;;;;;;;52.00;21.20;;;;;;;-1.69;96.29;99361.59;102956;1291;138985;-76
2022/11/30 03:59:21;;;;;;;51.30;21.50;;;;;;;-1.69;96.62;99360.90;103105;1304;23004;-76
2022/11/30 04:01:47;;;;;;;52.90;23.00;;;;;;;-1.72;96.66;99355.55;102965;1289;138591;-76
2022/11/30 04:04:14;;;;;;;54.70;21.90;;;;;;;-1.74;96.46;99355.79;103097;1295;22608;-76
2022/11/30 04:06:41;;;;;;;56.10;23.40;;;;;;;-1.76;96.41;99355.94;103085;1286;22977;-76
2022/11/30 04:09:09;;;;;;;52.10;22.70;;;;;;;-1.78;96.56;99360.08;102836;1282;139702;-76
2022/11/30 04:11:36;;;;;;;55.50;23.60;;;;;;;-1.78;96.76;99363.08;103253;1304;24449;-76
2022/11/30 04:14:03;;;;;;;54.10;22.10;;;;;;;-1.78;96.84;99367.88;102892;1281;138664;-76
2022/11/30 04:16:29;;;;;;;53.00;23.90;;;;;;;-1.77;96.92;99365.52;103016;1308;22482;-76
2022/11/30 04:18:56;;;;;;;55.00;22.50;;;;;;;-1.76;96.89;99367.02;103041;1310;22475;-76
2022/11/30 04:21:23;;;;;;;54.30;23.20;;;;;;;-1.75;97.06;99368.55;102928;1295;140230;-76
2022/11/30 04:23:50;;;;;;;61.00;25.70;;;;;;;-1.75;96.95;99371.30;103111;1295;25286;-77
2022/11/30 04:26:18;;;;;;;60.50;23.90;;;;;;;-1.73;97.13;99372.08;103050;1289;138395;-77
2022/11/30 04:28:47;;;;;;;;;;;;;;;-1.72;97.01;99371.64;103054;1302;22458;-77
2022/11/30 04:31:14;;;;;;;56.00;21.50;;;;;;;-1.74;96.71;99365.18;103034;1290;23927;-77
2022/11/30 04:33:40;;;;;;;59.60;23.80;;;;;;;-1.75;96.68;99372.95;102933;1300;138155;-77
2022/11/30 04:36:17;;;;;;;59.20;23.10;;;;;;;-1.78;96.49;99371.45;103082;1288;26496;-76
2022/11/30 04:38:44;;;;;;;62.00;24.00;;;;;;;-1.78;96.51;99368.45;103046;1298;138888;-77
2022/11/30 04:41:13;;;;;;;60.60;23.90;;;;;;;-1.78;96.98;99373.38;103032;1310;23885;-77
2022/11/30 04:43:40;;;;;;;57.90;22.90;;;;;;;-1.77;96.86;99376.05;103102;1309;140760;-77
2022/11/30 04:46:07;;;;;;;60.20;24.20;;;;;;;-1.79;97.07;99375.98;103047;1286;25353;-77
2022/11/30 04:48:34;;;;;;;58.20;24.60;;;;;;;-1.79;96.83;99378.71;103164;1300;23028;-76
2022/11/30 04:51:03;;;;;;;62.00;24.20;;;;;;;-1.80;96.79;99378.56;103190;1310;138573;-76
2022/11/30 04:53:29;;;;;;;55.10;23.40;;;;;;;-1.80;96.87;99380.93;103134;1300;22496;-77
2022/11/30 04:55:56;;;;;;;54.50;23.10;;;;;;;-1.79;96.95;99382.20;102939;1297;138664;-76
2022/11/30 04:58:23;;;;;;;59.90;22.80;;;;;;;-1.81;96.82;99381.86;103007;1310;24255;-76
2022/11/30 05:00:54;;;;;;;50.70;21.20;;;;;;;-1.82;96.48;99380.96;102977;1305;22612;-76
2022/11/30 05:03:21;;;;;;;56.00;22.70;;;;;;;-1.83;96.67;99388.10;103100;1304;138793;-76
2022/11/30 05:05:48;;;;;;;54.40;21.10;;;;;;;-1.83;96.87;99388.66;103136;1295;25453;-76
2022/11/30 05:08:15;;;;;;;56.90;21.70;;;;;;;-1.81;96.95;99390.28;102899;1301;140484;-76
2022/11/30 05:10:42;;;;;;;54.20;21.70;;;;;;;-1.82;97.08;99391.55;103352;1297;25239;-76
2022/11/30 05:13:09;;;;;;;55.60;22.00;;;;;;;-1.83;97.04;99392.40;103095;1296;25235;-76
2022/11/30 05:15:35;;;;;;;55.90;22.50;;;;;;;-1.81;96.90;99388.33;102914;1288;138538;-76
2022/11/30 05:18:02;;;;;;;60.50;24.00;;;;;;;-1.81;97.16;99387.41;103126;1310;24253;-76
2022/11/30 05:20:29;;;;;;;53.30;22.00;;;;;;;-1.81;96.91;99389.33;103006;1300;138431;-77
2022/11/30 05:22:56;;;;;;;57.20;23.70;;;;;;;-1.81;97.13;99392.16;103098;1286;24251;-76
2022/11/30 05:25:23;;;;;;;61.10;23.30;;;;;;;-1.78;97.09;99395.17;103216;1304;138527;-76
2022/11/30 05:27:50;;;;;;;60.90;24.70;;;;;;;-1.75;97.28;99396.69;103250;1295;22492;-76
2022/11/30 05:30:17;;;;;;;58.60;23.30;;;;;;;-1.76;96.88;99394.02;103154;1311;22858;-76
2022/11/30 05:32:44;;;;;;;60.50;23.70;;;;;;;-1.77;96.77;99401.83;103070;1289;138277;-76
2022/11/30 05:35:11;;;;;;;58.00;24.90;;;;;;;-1.76;96.99;99401.04;103470;1292;22477;-76
2022/11/30 05:37:38;;;;;;;56.30;22.50;;;;;;;-1.78;96.91;99401.69;103131;1294;139541;-76
2022/11/30 05:40:05;;;;;;;59.80;25.10;;;;;;;-1.78;96.45;99396.41;103319;1296;22535;-77
2022/11/30 05:42:32;;;;;;;59.50;25.10;;;;;;;-1.80;96.76;99395.18;103227;1295;25274;-76
2022/11/30 05:44:59;;;;;;;58.80;24.00;;;;;;;-1.82;96.58;99395.13;103067;1310;138348;-76
2022/11/30 05:47:26;;;;;;;49.70;22.10;;;;;;;-1.82;96.65;99392.29;103474;1294;22589;-76
2022/11/30 05:49:53;;;;;;;55.50;23.10;;;;;;;-1.83;96.75;99393.33;103084;1295;138580;-76
2022/11/30 05:52:20;;;;;;;53.00;22.70;;;;;;;-1.83;96.73;99395.14;103100;1311;22463;-76
2022/11/30 05:54:47;;;;;;;56.80;24.00;;;;;;;-1.83;96.75;99395.46;103228;1310;22490;-76
2022/11/30 05:57:13;;;;;;;62.80;26.20;;;;;;;-1.82;96.87;99394.48;103054;1304;138747;-76
2022/11/30 05:59:40;;;;;;;55.80;23.80;;;;;;;-1.82;96.87;99394.79;103207;1297;22506;-76
2022/11/30 06:02:07;;;;;;;59.00;22.20;;;;;;;-1.83;96.62;99396.33;103069;1295;138438;-76
2022/11/30 06:04:34;;;;;;;60.80;25.20;;;;;;;-1.85;96.44;99392.94;103150;1288;22514;-76
2022/11/30 06:07:01;;;;;;;60.90;23.90;;;;;;;-1.85;96.86;99395.86;103166;1310;24379;-76
2022/11/30 06:09:28;;;;;;;56.90;22.70;;;;;;;-1.84;96.80;99393.23;102956;1286;138247;-76
2022/11/30 06:11:55;;;;;;;64.40;25.80;;;;;;;-1.84;96.93;99395.52;103143;1298;22580;-76
2022/11/30 06:14:21;;;;;;;58.30;22.60;;;;;;;-1.84;96.67;99402.98;102987;1296;138485;-76
2022/11/30 06:16:48;;;;;;;56.60;22.80;;;;;;;-1.83;96.85;99405.95;103204;1282;22953;-76
2022/11/30 06:19:15;;;;;;;63.80;25.00;;;;;;;-1.81;97.03;99409.88;103067;1286;22474;-76
2022/11/30 06:21:42;;;;;;;63.90;25.20;;;;;;;-1.80;97.20;99414.37;103072;1302;138309;-76
2022/11/30 06:24:09;;;;;;;58.60;24.50;;;;;;;-1.77;96.97;99418.73;103274;1295;23036;-76
2022/11/30 06:26:35;;;;;;;55.40;24.60;;;;;;;-1.77;97.06;99416.02;103120;1305;138478;-76
2022/11/30 06:29:02;;;;;;;57.30;24.70;;;;;;;-1.73;97.32;99417.48;103304;1295;22603;-76
2022/11/30 06:31:30;;;;;;;59.10;23.80;;;;;;;-1.71;96.82;99413.55;103187;1286;138515;-76
2022/11/30 06:33:58;;;;;;;57.90;24.80;;;;;;;-1.71;96.62;99416.78;103455;1290;22488;-76
2022/11/30 06:36:25;;;;;;;52.50;21.80;;;;;;;-1.73;96.65;99414.98;103531;1286;23719;-76
2022/11/30 06:38:54;;;;;;;50.80;22.20;;;;;;;-1.75;96.29;99419.03;103125;1295;138135;-76
2022/11/30 06:41:21;;;;;;;53.70;23.20;;;;;;;-1.76;96.42;99419.29;103359;1288;22519;-76
2022/11/30 06:43:48;;;;;;;51.80;23.10;;;;;;;-1.77;96.65;99418.00;103314;1295;138547;-76
2022/11/30 06:46:15;;;;;;;53.60;19.90;;;;;;;-1.76;96.30;99423.31;103125;1302;22757;-76
2022/11/30 06:48:42;;;;;;;54.30;22.40;;;;;;;-1.79;96.38;99427.07;103091;1313;22480;-76
2022/11/30 06:51:09;;;;;;;50.20;21.50;;;;;;;-1.80;96.43;99426.48;103036;1291;138281;-76
2022/11/30 06:53:36;;;;;;;53.00;22.70;;;;;;;-1.79;96.84;99426.23;103364;1286;23915;-76
2022/11/30 06:56:07;;;;;;;53.20;22.90;;;;;;;-1.80;96.71;99429.35;103244;1310;138387;-76
2022/11/30 06:58:35;;;;;;;57.90;25.40;;;;;;;-1.82;96.32;99426.83;103151;1286;25680;-76
2022/11/30 07:01:07;;;;;;;58.60;24.30;;;;;;;-1.82;96.83;99423.15;103142;1289;25306;-76
2022/11/30 07:03:34;;;;;;;51.00;22.10;;;;;;;-1.81;96.74;99426.73;103009;1305;138341;-75
2022/11/30 07:06:06;;;;;;;46.20;21.30;;;;;;;-1.79;96.83;99427.48;103244;1291;25307;-75
2022/11/30 07:08:32;;;;;;;47.10;20.90;;;;;;;-1.76;97.00;99429.67;103170;1298;138239;-75
2022/11/30 07:10:59;;;;;;;48.80;22.70;;;;;;;-1.74;97.07;99429.98;103622;1281;24286;-75
2022/11/30 07:13:26;;;;;;;49.30;22.90;;;;;;;-1.73;97.01;99430.95;103090;1310;138385;-75
2022/11/30 07:15:53;;;;;;;52.80;24.00;;;;;;;-1.71;96.85;99432.05;103227;1288;22473;-76
2022/11/30 07:18:20;;;;;;;54.60;23.70;;;;;;;-1.70;96.53;99435.52;104214;1278;23312;-76
2022/11/30 07:20:47;;;;;;;57.10;26.10;;;;;;;-1.69;96.65;99436.37;103933;1295;138245;-75
2022/11/30 07:26:08;;;;;;;54.50;24.40;;;;;;;-1.61;96.81;99433.43;103401;1285;138865;-75
2022/11/30 07:28:44;;;;;;;53.10;24.40;;;;;;;-1.59;96.81;99434.73;103280;1279;22492;-75
2022/11/30 07:31:18;;;;;;;55.10;23.10;;;;;;;-1.59;96.28;99436.27;103371;1286;23328;-75
2022/11/30 07:33:47;;;;;;;51.40;24.20;;;;;;;-1.57;96.54;99434.70;103369;1310;138401;-75
2022/11/30 07:36:15;;;;;;;60.60;24.70;;;;;;;-1.56;96.65;99434.38;103643;1297;22477;-75
2022/11/30 07:38:42;;;;;;;51.00;23.40;;;;;;;-1.49;96.98;99431.52;103672;1291;138363;-75
2022/11/30 07:41:09;;;;;;;50.00;22.20;;;;;;;-1.49;96.19;99430.70;103845;1287;22498;-75
2022/11/30 07:43:36;;;;;;;52.40;22.40;;;;;;;-1.47;96.34;99436.65;103181;1295;138850;-75
2022/11/30 07:46:04;;;;;;;49.20;23.70;;;;;;;-1.47;96.19;99439.09;103277;1295;22943;-75
2022/11/30 07:48:32;;;;;;;50.40;24.20;;;;;;;-1.46;96.12;99441.01;105147;1304;22489;-76
2022/11/30 07:51:05;;;;;;;47.50;22.40;;;;;;;-1.46;96.18;99444.12;104389;1309;138420;-76
2022/11/30 07:53:32;;;;;;;51.30;23.50;;;;;;;-1.43;96.33;99447.13;103521;1297;22545;-75
2022/11/30 07:56:04;;;;;;;47.10;22.60;;;;;;;-1.41;96.60;99446.70;104711;1281;138391;-75
2022/11/30 07:58:31;;;;;;;40.30;20.00;;;;;;;-1.40;96.02;99450.00;103993;1289;22179;-76
2022/11/30 08:01:06;;;;;;;48.20;22.80;;;;;;;-1.39;96.04;99451.14;103930;1281;24299;-75
2022/11/30 08:03:33;;;;;;;43.90;20.80;;;;;;;-1.36;96.13;99451.97;104446;1286;138621;-75
2022/11/30 08:06:03;;;;;;;46.90;21.80;;;;;;;-1.35;96.01;99450.09;103557;1303;25223;-75
2022/11/30 08:08:31;;;;;;;50.30;21.90;;;;;;;-1.39;95.56;99451.48;103164;1286;138320;-75
2022/11/30 08:10:59;;;;;;;48.80;21.70;;;;;;;-1.40;95.43;99452.68;104428;1279;24545;-77
2022/11/30 08:13:27;;;;;;;57.40;25.60;;;;;;;-1.41;95.56;99456.50;103309;1295;138405;-75
2022/11/30 08:15:54;;;;;;;58.60;25.70;;;;;;;-1.42;95.28;99455.23;103365;1303;23246;-76
2022/11/30 08:18:21;;;;;;;63.30;26.40;;;;;;;-1.42;95.70;99457.55;103267;1300;24250;-76
2022/11/30 08:20:55;;;;;;;63.80;25.60;;;;;;;-1.43;95.49;99460.29;103072;1310;138284;-76
2022/11/30 08:23:22;;;;;;;62.10;26.50;;;;;;;-1.43;95.77;99459.25;103425;1279;22480;-76
2022/11/30 08:25:49;;;;;;;58.00;25.10;;;;;;;-1.42;95.65;99457.85;103098;1291;138970;-76
2022/11/30 08:28:16;;;;;;;68.90;25.10;;;;;;;-1.42;95.61;99461.96;103197;1305;22485;-75
2022/11/30 08:30:43;;;;;;;52.50;23.20;;;;;;;-1.43;95.97;99457.02;103197;1308;22562;-76
2022/11/30 08:33:10;;;;;;;49.60;21.80;;;;;;;-1.43;95.71;99464.16;103583;1298;138907;-76
2022/11/30 08:35:37;;;;;;;55.40;24.20;;;;;;;-1.44;95.85;99466.25;104743;1284;22304;-76
2022/11/30 08:38:03;;;;;;;45.10;20.60;;;;;;;-1.46;95.55;99464.14;103986;1302;138446;-76
2022/11/30 08:40:31;;;;;;;42.20;20.70;;;;;;;-1.48;95.67;99468.20;104928;1286;24272;-76
2022/11/30 08:42:58;;;;;;;38.10;19.00;;;;;;;-1.47;96.07;99470.65;103371;1287;22758;-75
2022/11/30 08:45:25;;;;;;;39.90;18.40;;;;;;;-1.45;95.97;99469.20;103246;1282;138431;-76
2022/11/30 08:47:54;;;;;;;44.30;21.50;;;;;;;-1.44;95.54;99469.77;103278;1292;25379;-76
2022/11/30 08:50:21;;;;;;;47.30;21.10;;;;;;;-1.42;96.16;99469.64;104009;1288;138478;-76
2022/11/30 08:52:48;;;;;;;48.30;20.70;;;;;;;-1.42;95.92;99471.75;103221;1303;24231;-76
2022/11/30 08:55:15;;;;;;;46.80;21.80;;;;;;;-1.41;95.68;99469.85;103107;1294;25352;-76
2022/11/30 08:57:41;;;;;;;45.90;21.40;;;;;;;-1.39;95.96;99472.21;103129;1304;138087;-76
2022/11/30 09:00:09;;;;;;;41.70;19.90;;;;;;;-1.37;96.01;99470.01;103039;1291;22526;-75
2022/11/30 09:02:36;;;;;;;48.30;21.60;;;;;;;-1.36;95.73;99462.83;103861;1288;138237;-76
2022/11/30 09:05:03;;;;;;;42.70;20.40;;;;;;;-1.36;95.92;99463.13;103614;1294;22500;-76
2022/11/30 09:07:30;;;;;;;42.50;21.70;;;;;;;-1.33;95.93;99465.77;103080;1279;140224;-75
2022/11/30 09:09:58;;;;;;;43.50;20.40;;;;;;;-1.31;95.99;99468.59;103712;1286;22601;-76
2022/11/30 09:12:25;;;;;;;40.30;20.20;;;;;;;-1.30;95.79;99466.86;103283;1285;22536;-75
2022/11/30 09:14:52;;;;;;;46.70;22.60;;;;;;;-1.29;95.80;99472.52;103427;1310;138981;-76
2022/11/30 09:17:19;;;;;;;47.10;21.90;;;;;;;-1.29;95.86;99470.05;103335;1295;22472;-75
2022/11/30 09:19:46;;;;;;;47.60;22.50;;;;;;;-1.27;95.89;99469.88;103121;1297;138911;-75
2022/11/30 09:22:12;;;;;;;47.30;21.50;;;;;;;-1.26;95.76;99474.37;103074;1295;24393;-75
2022/11/30 09:24:40;;;;;;;42.70;21.80;;;;;;;-1.26;95.41;99477.73;103463;1296;25267;-76
2022/11/30 09:27:07;;;;;;;50.10;22.10;;;;;;;-1.26;95.41;99476.74;103430;1295;138300;-75
2022/11/30 09:29:35;;;;;;;45.00;22.00;;;;;;;-1.26;95.55;99472.75;103495;1288;25297;-75
2022/11/30 09:32:02;;;;;;;47.40;21.90;;;;;;;-1.22;95.64;99473.77;103097;1295;140265;-75
2022/11/30 09:34:29;;;;;;;49.20;21.80;;;;;;;-1.20;95.73;99469.55;103249;1310;24376;-75
2022/11/30 09:36:56;;;;;;;43.60;20.70;;;;;;;-1.17;96.01;99467.85;103365;1303;22485;-75
2022/11/30 09:39:23;;;;;;;49.50;21.90;;;;;;;-1.14;95.87;99465.27;103125;1295;138257;-75
2022/11/30 09:41:52;;;;;;;40.00;20.70;;;;;;;-1.12;95.75;99467.35;103871;1295;22615;-75
2022/11/30 09:44:47;;;;;;;40.30;19.10;;;;;;;-1.11;95.48;99460.50;103609;1296;138310;-75
2022/11/30 09:47:42;;;;;;;33.60;18.00;;;;;;;-1.11;95.15;99460.14;103280;1286;25392;-75
2022/11/30 09:50:15;;;;;;;30.40;16.80;;;;;;;-1.13;95.16;99459.06;103226;1302;139084;-76
2022/11/30 09:52:54;;;;;;;35.80;18.10;;;;;;;-1.12;95.52;99459.17;103398;1290;22484;-76
2022/11/30 09:55:29;;;;;;;31.20;15.80;;;;;;;-1.11;95.17;99458.53;103091;1292;25554;-75
2022/11/30 09:58:02;;;;;;;30.90;17.40;;;;;;;-1.10;95.44;99451.71;103041;1307;22496;-75
2022/11/30 10:00:29;;;;;;;34.60;18.50;;;;;;;-1.08;95.53;99451.34;103309;1303;24241;-75
2022/11/30 10:03:00;;;;;;;37.40;18.90;;;;;;;-1.06;95.58;99452.48;103278;1310;138266;-75
2022/11/30 10:05:40;;;;;;;38.30;19.80;;;;;;;-1.03;95.14;99454.86;104462;1296;22491;-75
2022/11/30 10:08:29;;;;;;;38.20;19.00;;;;;;;-1.01;95.19;99450.64;104071;1285;139143;-75
2022/11/30 10:11:10;;;;;;;37.00;18.00;;;;;;;-1.01;95.03;99444.89;103787;1285;24445;-74
2022/11/30 10:13:54;;;;;;;34.80;19.30;;;;;;;-1.02;94.87;99442.28;103065;1286;138433;-74
2022/11/30 10:16:32;;;;;;;34.80;18.10;;;;;;;-1.02;94.75;99441.83;103107;1302;22864;-74
2022/11/30 10:19:11;;;;;;;33.80;18.20;;;;;;;-1.03;94.63;99446.34;103133;1285;23311;-74
2022/11/30 10:22:26;;;;;;;31.80;17.50;;;;;;;-1.03;94.73;99440.27;102927;1295;138397;-74
2022/11/30 10:24:59;;;;;;;31.00;16.80;;;;;;;-1.00;94.81;99441.44;102912;1295;24265;-74
2022/11/30 10:27:48;;;;;;;30.80;17.90;;;;;;;-0.97;94.94;99442.23;103097;1310;138316;-74
2022/11/30 10:30:17;;;;;;;33.30;17.10;;;;;;;-0.91;94.96;99442.77;103115;1298;22545;-74
2022/11/30 10:32:48;;;;;;;27.20;17.20;;;;;;;-0.89;94.96;99439.12;103111;1285;140158;-74
2022/11/30 10:35:22;;;;;;;28.60;15.90;;;;;;;-0.86;95.18;99438.15;103534;1285;25403;-74
2022/11/30 10:37:51;;;;;;;28.90;15.90;;;;;;;-0.85;94.67;99440.52;102872;1310;138528;-74
2022/11/30 10:40:30;;;;;;;30.30;17.90;;;;;;;-0.81;95.14;99436.11;103793;1289;22482;-74
2022/11/30 10:43:14;;;;;;;26.00;14.80;;;;;;;-0.76;94.89;99436.29;103614;1307;25563;-74
2022/11/30 10:45:47;;;;;;;31.10;17.60;;;;;;;-0.74;94.63;99431.17;103691;1295;138324;-74
2022/11/30 10:48:16;;;;;;;28.10;16.40;;;;;;;-0.73;94.78;99430.88;103479;1286;22492;-74
2022/11/30 10:50:43;;;;;;;29.20;16.70;;;;;;;-0.72;94.42;99426.98;103610;1298;138769;-74
2022/11/30 10:53:12;;;;;;;29.50;16.60;;;;;;;-0.72;94.27;99428.05;103372;1288;25363;-74
2022/11/30 10:55:55;;;;;;;31.20;17.70;;;;;;;-0.72;94.37;99430.40;103728;1287;138378;-74
2022/11/30 10:58:48;;;;;;;31.20;17.80;;;;;;;-0.70;94.45;99425.02;103278;1285;22912;-74
2022/11/30 11:01:30;;;;;;;28.30;16.80;;;;;;;-0.68;94.31;99424.65;103326;1310;24316;-74
2022/11/30 11:04:24;;;;;;;28.10;16.60;;;;;;;-0.66;94.24;99427.30;103736;1294;22616;-74
2022/11/30 11:06:58;;;;;;;31.60;18.10;;;;;;;-0.65;94.20;99425.42;102732;1313;22482;-74
2022/11/30 11:09:29;;;;;;;27.70;15.00;;;;;;;-0.62;94.43;99418.35;102795;1297;138402;-74
2022/11/30 11:12:03;;;;;;;26.20;16.50;;;;;;;-0.60;94.39;99412.25;102558;1294;22756;-74
2022/11/30 11:14:31;;;;;;;22.40;14.50;;;;;;;-0.62;93.70;99411.42;102467;1302;138339;-74
2022/11/30 11:17:21;;;;;;;27.90;15.50;;;;;;;-0.65;93.32;99418.98;102565;1294;23429;-73
2022/11/30 11:19:49;;;;;;;23.10;14.40;;;;;;;-0.65;93.73;99419.55;102509;1309;138558;-73
2022/11/30 11:22:20;;;;;;;25.70;14.40;;;;;;;-0.67;93.63;99423.08;102414;1303;25319;-74